createdAt,value
2018-02-18T00:00:04.194Z,25.47
2018-02-18T00:02:33.084Z,26.30
2018-02-18T00:05:01.628Z,24.90
2018-02-18T00:07:30.270Z,24.90
2018-02-18T00:09:58.896Z,24.57
2018-02-18T00:12:27.468Z,23.90
2018-02-18T00:14:57.609Z,23.23
2018-02-18T00:17:26.208Z,23.17
2018-02-18T00:19:54.769Z,24.23
2018-02-18T00:22:23.325Z,23.60
2018-02-18T00:24:52.864Z,25.23
2018-02-18T00:27:21.420Z,25.33
2018-02-18T00:29:50.736Z,25.30
2018-02-18T00:32:19.352Z,23.83
2018-02-18T00:34:47.904Z,26.50
2018-02-18T00:37:17.216Z,27.83
2018-02-18T00:39:45.844Z,31.03
2018-02-18T00:42:14.425Z,30.43
2018-02-18T00:44:42.972Z,35.33
2018-02-18T00:47:11.604Z,38.83
2018-02-18T00:49:40.180Z,39.57
2018-02-18T00:52:08.744Z,36.37
2018-02-18T00:54:37.349Z,38.70
2018-02-18T00:57:05.947Z,39.40
2018-02-18T00:59:35.264Z,35.70
2018-02-18T01:02:04.093Z,34.33
2018-02-18T01:04:32.641Z,32.30
2018-02-18T01:07:01.188Z,28.60
2018-02-18T01:09:29.929Z,28.60
2018-02-18T01:11:58.484Z,26.03
2018-02-18T01:14:27.796Z,31.10
2018-02-18T01:16:57.156Z,28.23
2018-02-18T01:19:25.740Z,26.43
2018-02-18T01:21:54.305Z,27.40
2018-02-18T01:24:23.095Z,30.73
2018-02-18T01:26:51.644Z,32.27
2018-02-18T01:29:20.192Z,34.30
2018-02-18T01:31:49.036Z,34.90
2018-02-18T01:34:17.588Z,35.07
2018-02-18T01:36:46.905Z,33.97
2018-02-18T01:39:15.648Z,36.73
2018-02-18T01:41:44.204Z,43.30
2018-02-18T01:44:12.752Z,38.97
2018-02-18T01:46:41.495Z,35.23
2018-02-18T01:49:10.058Z,36.83
2018-02-18T01:51:38.612Z,37.77
2018-02-18T01:54:07.517Z,37.43
2018-02-18T01:56:36.068Z,36.73
2018-02-18T01:59:05.383Z,37.53
2018-02-18T02:01:34.073Z,40.47
2018-02-18T02:04:02.625Z,37.60
2018-02-18T02:06:31.945Z,39.83
2018-02-18T02:09:00.540Z,38.13
2018-02-18T02:11:29.096Z,37.63
2018-02-18T02:13:58.412Z,38.83
2018-02-18T02:16:27.229Z,37.50
2018-02-18T02:18:55.784Z,35.93
2018-02-18T02:21:24.330Z,36.00
2018-02-18T02:23:53.089Z,38.97
2018-02-18T02:26:21.648Z,37.50
2018-02-18T02:28:50.205Z,35.43
2018-02-18T02:31:19.664Z,39.10
2018-02-18T02:33:48.220Z,37.43
2018-02-18T02:36:16.777Z,36.10
2018-02-18T02:38:45.435Z,41.20
2018-02-18T02:41:13.996Z,41.87
2018-02-18T02:43:42.541Z,45.73
2018-02-18T02:46:11.144Z,50.83
2018-02-18T02:48:39.710Z,50.83
2018-02-18T02:51:08.260Z,48.90
2018-02-18T02:53:38.521Z,58.43
2018-02-18T02:56:07.073Z,49.90
2018-02-18T02:58:36.393Z,49.00
2018-02-18T03:01:05.015Z,40.93
2018-02-18T03:03:33.564Z,42.83
2018-02-18T03:06:02.112Z,40.90
2018-02-18T03:08:30.969Z,39.40
2018-02-18T03:10:59.517Z,37.67
2018-02-18T03:13:28.068Z,38.37
2018-02-18T03:15:56.676Z,39.23
2018-02-18T03:18:25.229Z,42.93
2018-02-18T03:20:53.808Z,47.40
2018-02-18T03:23:22.525Z,47.67
2018-02-18T03:25:51.841Z,41.70
2018-02-18T03:28:20.397Z,38.97
2018-02-18T03:30:49.964Z,39.67
2018-02-18T03:33:18.516Z,36.07
2018-02-18T03:35:47.072Z,39.40
2018-02-18T03:38:16.635Z,38.70
2018-02-18T03:40:45.183Z,38.13
2018-02-18T03:43:13.732Z,39.17
2018-02-18T03:45:43.109Z,39.20
2018-02-18T03:48:11.658Z,42.50
2018-02-18T03:50:40.278Z,44.37
2018-02-18T03:53:09.048Z,45.30
2018-02-18T03:55:37.601Z,41.10
2018-02-18T03:58:06.916Z,38.20
2018-02-18T04:00:35.716Z,38.53
2018-02-18T04:03:04.264Z,36.17
2018-02-18T04:05:33.576Z,39.70
2018-02-18T04:08:02.164Z,36.33
2018-02-18T04:10:30.710Z,38.23
2018-02-18T04:12:59.261Z,37.27
2018-02-18T04:15:27.880Z,42.17
2018-02-18T04:17:57.932Z,41.70
2018-02-18T04:20:26.488Z,41.40
2018-02-18T04:22:55.857Z,38.90
2018-02-18T04:25:24.404Z,41.83
2018-02-18T04:27:52.953Z,41.40
2018-02-18T04:30:22.617Z,39.60
2018-02-18T04:32:51.931Z,40.67
2018-02-18T04:35:20.481Z,41.73
2018-02-18T04:37:49.168Z,39.57
2018-02-18T04:40:17.713Z,38.90
2018-02-18T04:42:47.025Z,38.03
2018-02-18T04:45:16.580Z,39.47
2018-02-18T04:47:45.128Z,42.80
2018-02-18T04:50:13.676Z,39.00
2018-02-18T04:52:42.280Z,39.67
2018-02-18T04:55:11.580Z,39.07
2018-02-18T04:57:40.905Z,53.83
2018-02-18T05:00:09.509Z,57.37
2018-02-18T05:02:38.056Z,61.33
2018-02-18T05:05:07.372Z,62.43
2018-02-18T05:07:35.973Z,57.70
2018-02-18T05:10:04.528Z,54.60
2018-02-18T05:12:33.072Z,49.87
2018-02-18T05:15:01.760Z,49.23
2018-02-18T05:17:30.316Z,51.07
2018-02-18T05:19:58.866Z,47.83
2018-02-18T05:22:27.560Z,45.30
2018-02-18T05:24:56.108Z,54.53
2018-02-18T05:27:25.432Z,81.37
2018-02-18T05:29:55.798Z,93.37
2018-02-18T05:32:25.123Z,80.13
2018-02-18T05:34:53.677Z,76.67
2018-02-18T05:37:22.268Z,84.77
2018-02-18T05:39:50.821Z,83.27
2018-02-18T05:42:19.367Z,83.00
2018-02-18T05:44:48.736Z,122.50
2018-02-18T05:47:17.292Z,77.00
2018-02-18T05:49:45.840Z,67.23
2018-02-18T05:52:15.212Z,56.67
2018-02-18T05:54:43.780Z,66.80
2018-02-18T05:57:12.332Z,113.40
2018-02-18T05:59:40.932Z,137.40
2018-02-18T06:02:09.489Z,96.40
2018-02-18T06:04:38.808Z,82.63
2018-02-18T06:07:07.416Z,81.47
2018-02-18T06:09:35.964Z,83.53
2018-02-18T06:12:04.517Z,72.57
2018-02-18T06:14:34.085Z,76.80
2018-02-18T06:17:02.636Z,73.40
2018-02-18T06:19:31.184Z,146.37
2018-02-18T06:21:59.789Z,99.63
2018-02-18T06:24:28.340Z,93.37
2018-02-18T06:26:56.894Z,93.73
2018-02-18T06:29:25.893Z,90.07
2018-02-18T06:31:54.445Z,100.53
2018-02-18T06:34:22.999Z,63.57
2018-02-18T06:36:52.381Z,55.20
2018-02-18T06:39:20.936Z,59.40
2018-02-18T06:41:49.533Z,55.30
2018-02-18T06:44:18.417Z,53.87
2018-02-18T06:46:46.964Z,51.93
2018-02-18T06:49:15.512Z,52.23
2018-02-18T06:51:44.473Z,52.63
2018-02-18T06:54:13.017Z,51.83
2018-02-18T06:56:41.573Z,103.73
2018-02-18T06:59:10.265Z,90.13
2018-02-18T07:01:39.588Z,116.67
2018-02-18T07:04:08.136Z,59.73
2018-02-18T07:06:36.829Z,61.10
2018-02-18T07:09:05.441Z,84.67
2018-02-18T07:11:33.993Z,84.73
2018-02-18T07:14:02.597Z,75.33
2018-02-18T07:16:31.916Z,94.70
2018-02-18T07:19:00.465Z,90.20
2018-02-18T07:21:30.672Z,73.97
2018-02-18T07:23:59.237Z,73.87
2018-02-18T07:26:27.788Z,67.10
2018-02-18T07:28:56.610Z,81.07
2018-02-18T07:31:25.168Z,67.40
2018-02-18T07:33:53.725Z,63.17
2018-02-18T07:36:23.275Z,84.80
2018-02-18T07:38:51.824Z,77.37
2018-02-18T07:41:20.376Z,50.33
2018-02-18T07:43:49.236Z,53.03
2018-02-18T07:46:17.792Z,48.73
2018-02-18T07:48:46.344Z,43.47
2018-02-18T07:51:15.711Z,44.30
2018-02-18T07:53:44.262Z,41.87
2018-02-18T07:56:12.816Z,39.77
2018-02-18T07:58:42.189Z,42.73
2018-02-18T08:01:10.748Z,41.97
2018-02-18T08:03:40.001Z,40.03
2018-02-18T08:06:09.388Z,39.53
2018-02-18T08:08:38.708Z,39.40
2018-02-18T08:11:08.029Z,36.83
2018-02-18T08:13:36.664Z,32.03
2018-02-18T08:16:05.240Z,32.03
2018-02-18T08:18:33.811Z,43.83
2018-02-18T08:21:02.449Z,36.40
2018-02-18T08:23:31.001Z,39.03
2018-02-18T08:25:59.558Z,31.30
2018-02-18T08:28:29.063Z,30.63
2018-02-18T08:30:57.614Z,32.07
2018-02-18T08:33:26.164Z,32.60
2018-02-18T08:35:55.828Z,31.87
2018-02-18T08:38:24.377Z,30.27
2018-02-18T08:40:53.709Z,28.00
2018-02-18T08:43:22.461Z,27.87
2018-02-18T08:45:51.016Z,31.03
2018-02-18T08:48:19.570Z,28.43
2018-02-18T08:50:48.169Z,26.37
2018-02-18T08:53:16.717Z,27.87
2018-02-18T08:55:45.258Z,27.13
2018-02-18T08:58:14.825Z,26.53
2018-02-18T09:00:43.381Z,27.23
2018-02-18T09:03:11.974Z,28.60
2018-02-18T09:05:40.725Z,29.37
2018-02-18T09:08:10.049Z,33.70
2018-02-18T09:10:38.604Z,27.30
2018-02-18T09:13:08.375Z,27.43
2018-02-18T09:15:36.930Z,27.93
2018-02-18T09:18:05.493Z,26.87
2018-02-18T09:20:35.028Z,27.77
2018-02-18T09:23:03.585Z,31.87
2018-02-18T09:25:32.137Z,35.27
2018-02-18T09:28:00.754Z,43.00
2018-02-18T09:30:29.316Z,30.47
2018-02-18T09:32:58.636Z,30.40
2018-02-18T09:35:27.240Z,31.43
2018-02-18T09:37:55.804Z,28.43
2018-02-18T09:40:24.365Z,31.50
2018-02-18T09:42:53.848Z,28.53
2018-02-18T09:45:23.173Z,31.20
2018-02-18T09:47:52.500Z,27.80
2018-02-18T09:50:22.077Z,28.03
2018-02-18T09:52:50.632Z,30.23
2018-02-18T09:55:19.185Z,50.53
2018-02-18T09:57:47.881Z,45.43
2018-02-18T10:02:50.190Z,33.90
2018-02-18T10:05:18.766Z,29.07
2018-02-18T10:07:47.330Z,28.97
2018-02-18T10:10:16.041Z,28.17
2018-02-18T10:12:44.603Z,25.60
2018-02-18T10:15:13.169Z,25.33
2018-02-18T10:17:41.989Z,26.47
2018-02-18T10:20:10.549Z,26.27
2018-02-18T10:22:39.109Z,31.77
2018-02-18T10:25:08.509Z,33.50
2018-02-18T10:27:37.064Z,25.97
2018-02-18T10:30:05.629Z,26.60
2018-02-18T10:32:34.281Z,26.53
2018-02-18T10:35:02.841Z,26.30
2018-02-18T10:37:32.173Z,27.53
2018-02-18T10:40:00.801Z,27.37
2018-02-18T10:42:29.383Z,27.97
2018-02-18T10:44:57.948Z,28.70
2018-02-18T10:47:26.556Z,26.77
2018-02-18T10:49:55.121Z,25.97
2018-02-18T10:52:23.681Z,28.60
2018-02-18T10:54:52.389Z,42.03
2018-02-18T10:57:20.954Z,48.30
2018-02-18T10:59:49.513Z,27.30
2018-02-18T11:02:18.137Z,28.27
2018-02-18T11:04:46.700Z,27.57
2018-02-18T11:07:15.264Z,26.37
2018-02-18T11:09:44.153Z,29.20
2018-02-18T11:12:12.721Z,142.67
2018-02-18T11:14:41.332Z,70.37
2018-02-18T11:17:09.950Z,28.33
2018-02-18T11:19:39.277Z,464.73
2018-02-18T11:22:07.840Z,52.07
2018-02-18T11:24:37.210Z,29.40
2018-02-18T11:27:05.774Z,29.10
2018-02-18T11:29:34.345Z,27.97
2018-02-18T11:32:02.950Z,83.93
2018-02-18T11:34:31.519Z,32.27
2018-02-18T11:37:00.076Z,29.00
2018-02-18T11:39:29.007Z,28.90
2018-02-18T11:41:57.672Z,27.70
2018-02-18T11:44:26.249Z,27.27
2018-02-18T11:46:55.207Z,26.43
2018-02-18T11:49:23.780Z,26.63
2018-02-18T11:51:53.142Z,27.57
2018-02-18T11:54:21.938Z,27.03
2018-02-18T11:56:50.526Z,26.33
2018-02-18T11:59:19.097Z,25.43
2018-02-18T12:01:47.800Z,25.37
2018-02-18T12:04:16.348Z,26.27
2018-02-18T12:06:44.897Z,25.97
2018-02-18T12:09:14.373Z,25.97
2018-02-18T12:11:42.957Z,26.40
2018-02-18T12:14:11.520Z,26.57
2018-02-18T12:16:40.304Z,26.13
2018-02-18T12:19:08.857Z,28.63
2018-02-18T12:21:37.441Z,24.87
2018-02-18T12:24:06.141Z,27.60
2018-02-18T12:26:34.704Z,24.93
2018-02-18T12:29:03.269Z,23.40
2018-02-18T12:31:32.653Z,25.47
2018-02-18T12:34:01.217Z,24.70
2018-02-18T12:36:30.533Z,25.13
2018-02-18T12:38:59.138Z,25.10
2018-02-18T12:41:35.052Z,25.27
2018-02-18T12:44:03.836Z,25.50
2018-02-18T12:46:32.392Z,28.53
2018-02-18T12:49:00.948Z,24.83
2018-02-18T12:51:30.518Z,25.17
2018-02-18T12:53:59.120Z,28.20
2018-02-18T12:56:27.693Z,25.53
2018-02-18T12:58:56.385Z,24.73
2018-02-18T13:01:24.962Z,29.67
2018-02-18T13:03:53.535Z,28.80
2018-02-18T13:06:22.148Z,25.63
2018-02-18T13:08:50.708Z,26.13
2018-02-18T13:11:19.272Z,24.63
2018-02-18T13:13:47.889Z,26.90
2018-02-18T13:16:16.466Z,26.13
2018-02-18T13:18:45.032Z,38.23
2018-02-18T13:21:13.826Z,26.17
2018-02-18T13:23:42.377Z,27.63
2018-02-18T13:26:10.929Z,30.90
2018-02-18T13:28:40.697Z,33.20
2018-02-18T13:31:09.252Z,32.10
2018-02-18T13:33:37.812Z,27.70
2018-02-18T13:36:07.272Z,26.03
2018-02-18T13:38:35.828Z,28.23
2018-02-18T13:41:04.396Z,27.00
2018-02-18T13:43:33.014Z,27.90
2018-02-18T13:46:01.568Z,31.47
2018-02-18T13:48:30.440Z,26.50
2018-02-18T13:50:59.962Z,39.13
2018-02-18T13:53:28.521Z,27.73
2018-02-18T13:55:57.964Z,32.50
2018-02-18T13:58:26.977Z,33.97
2018-02-18T14:00:55.525Z,37.23
2018-02-18T14:03:24.082Z,32.43
2018-02-18T14:05:53.461Z,34.00
2018-02-18T14:08:22.030Z,30.63
2018-02-18T14:10:50.585Z,35.53
2018-02-18T14:13:19.469Z,36.27
2018-02-18T14:15:48.030Z,35.70
2018-02-18T14:18:17.417Z,31.87
2018-02-18T14:20:46.280Z,29.37
2018-02-18T14:23:14.832Z,42.80
2018-02-18T14:25:43.390Z,33.73
2018-02-18T14:28:12.757Z,31.53
2018-02-18T14:30:41.319Z,33.17
2018-02-18T14:33:09.881Z,41.07
2018-02-18T14:35:39.560Z,108.83
2018-02-18T14:38:08.876Z,50.67
2018-02-18T14:40:38.385Z,40.70
2018-02-18T14:43:24.550Z,153.30
2018-02-18T14:46:10.857Z,51.60
2018-02-18T14:48:57.865Z,41.90
2018-02-18T14:51:44.135Z,45.80
2018-02-18T14:54:30.269Z,59.70
2018-02-18T14:57:17.319Z,228.43
2018-02-18T14:59:45.885Z,186.57
2018-02-18T15:02:14.445Z,308.50
2018-02-18T15:04:43.049Z,97.67
2018-02-18T15:07:11.634Z,80.07
2018-02-18T15:09:40.961Z,36.70
2018-02-18T15:12:09.662Z,29.37
2018-02-18T15:14:38.221Z,61.70
2018-02-18T15:17:06.774Z,33.03
2018-02-18T15:19:36.141Z,40.13
2018-02-18T15:22:04.721Z,39.13
2018-02-18T15:24:33.277Z,37.33
2018-02-18T15:27:02.189Z,50.23
2018-02-18T15:29:30.746Z,42.30
2018-02-18T15:31:59.305Z,36.23
2018-02-18T15:34:28.988Z,38.90
2018-02-18T15:36:57.549Z,48.13
2018-02-18T15:39:26.144Z,57.40
2018-02-18T15:41:54.748Z,52.70
2018-02-18T15:44:23.304Z,81.93
2018-02-18T15:46:51.866Z,53.20
2018-02-18T15:49:20.613Z,47.60
2018-02-18T15:51:49.934Z,48.87
2018-02-18T15:54:18.485Z,50.63
2018-02-18T15:56:48.057Z,55.97
2018-02-18T15:59:16.617Z,58.50
2018-02-18T16:01:45.176Z,53.33
2018-02-18T16:04:13.776Z,61.77
2018-02-18T16:06:42.337Z,70.23
2018-02-18T16:09:10.905Z,72.83
2018-02-18T16:11:39.524Z,86.30
2018-02-18T16:14:08.076Z,95.40
2018-02-18T16:16:36.688Z,102.87
2018-02-18T16:19:05.293Z,96.10
2018-02-18T16:21:33.854Z,94.17
2018-02-18T16:24:02.413Z,103.83
2018-02-18T16:26:31.220Z,122.10
2018-02-18T16:28:59.785Z,130.50
2018-02-18T16:31:28.349Z,119.40
2018-02-18T16:33:56.961Z,116.83
2018-02-18T16:36:25.521Z,117.60
2018-02-18T16:38:54.850Z,126.40
2018-02-18T16:41:23.457Z,127.70
2018-02-18T16:43:52.032Z,132.53
2018-02-18T16:46:20.601Z,167.80
2018-02-18T16:48:49.313Z,157.30
2018-02-18T16:51:17.885Z,152.73
2018-02-18T16:53:47.209Z,161.10
2018-02-18T16:56:15.820Z,176.00
2018-02-18T16:58:45.146Z,189.47
2018-02-18T17:01:13.709Z,187.53
2018-02-18T17:03:42.313Z,197.03
2018-02-18T17:06:10.874Z,191.77
2018-02-18T17:08:39.437Z,202.23
2018-02-18T17:11:08.820Z,205.97
2018-02-18T17:13:37.392Z,208.33
2018-02-18T17:16:06.721Z,206.10
2018-02-18T17:18:36.207Z,210.30
2018-02-18T17:21:05.592Z,204.87
2018-02-18T17:23:34.156Z,204.60
2018-02-18T17:26:02.972Z,196.73
2018-02-18T17:28:31.538Z,239.87
2018-02-18T17:31:00.097Z,258.83
2018-02-18T17:33:28.800Z,237.90
2018-02-18T17:35:57.368Z,226.17
2018-02-18T17:38:25.928Z,206.40
2018-02-18T17:40:55.310Z,226.13
2018-02-18T17:43:23.876Z,198.70
2018-02-18T17:45:52.469Z,193.40
2018-02-18T17:48:21.345Z,202.83
2018-02-18T17:50:49.909Z,179.90
2018-02-18T17:53:18.497Z,159.10
2018-02-18T17:55:47.109Z,160.17
2018-02-18T17:58:15.680Z,214.07
2018-02-18T18:00:44.237Z,166.87
2018-02-18T18:03:13.717Z,133.13
2018-02-18T18:05:42.282Z,125.93
2018-02-18T18:08:11.612Z,310.80
2018-02-18T18:10:40.225Z,295.23
2018-02-18T18:13:08.785Z,385.70
2018-02-18T18:15:37.346Z,356.03
2018-02-18T18:18:06.907Z,328.53
2018-02-18T18:20:35.471Z,335.37
2018-02-18T18:23:04.037Z,338.47
2018-02-18T18:25:32.859Z,251.83
2018-02-18T18:28:01.426Z,221.77
2018-02-18T18:30:29.986Z,179.23
2018-02-18T18:32:58.663Z,175.33
2018-02-18T18:35:27.993Z,167.43
2018-02-18T18:37:56.557Z,151.27
2018-02-18T18:40:25.182Z,132.40
2018-02-18T18:42:53.745Z,116.83
2018-02-18T18:45:22.315Z,101.47
2018-02-18T18:47:51.137Z,95.23
2018-02-18T18:50:19.700Z,91.47
2018-02-18T18:52:48.257Z,91.33
2018-02-18T18:55:17.630Z,104.03
2018-02-18T18:57:46.196Z,151.07
2018-02-18T19:00:14.763Z,218.90
2018-02-18T19:02:43.369Z,239.77
2018-02-18T19:05:11.937Z,185.27
2018-02-18T19:07:40.501Z,189.27
2018-02-18T19:10:09.109Z,175.67
2018-02-18T19:12:37.677Z,178.80
2018-02-18T19:15:06.240Z,208.93
2018-02-18T19:17:34.851Z,147.43
2018-02-18T19:20:03.405Z,90.00
2018-02-18T19:22:31.961Z,86.97
2018-02-18T19:25:01.473Z,85.33
2018-02-18T19:27:30.809Z,82.53
2018-02-18T19:29:59.366Z,81.93
2018-02-18T19:32:28.918Z,91.67
2018-02-18T19:34:57.513Z,125.23
2018-02-18T19:37:26.087Z,159.30
2018-02-18T19:39:54.822Z,165.00
2018-02-18T19:42:24.201Z,165.10
2018-02-18T19:44:53.544Z,109.67
2018-02-18T19:47:22.169Z,109.97
2018-02-18T19:49:50.763Z,88.67
2018-02-18T19:52:19.335Z,82.30
2018-02-18T19:54:47.941Z,82.57
2018-02-18T19:57:17.277Z,101.07
2018-02-18T19:59:45.840Z,92.90
2018-02-18T20:02:15.228Z,197.90
2018-02-18T20:04:43.790Z,122.47
2018-02-18T20:07:12.361Z,109.77
2018-02-18T20:09:41.117Z,100.10
2018-02-18T20:12:09.681Z,85.77
2018-02-18T20:14:38.245Z,130.50
2018-02-18T20:17:07.173Z,102.83
2018-02-18T20:19:35.755Z,137.77
2018-02-18T20:22:04.318Z,118.47
2018-02-18T20:24:32.926Z,89.93
2018-02-18T20:27:01.505Z,92.40
2018-02-18T20:29:30.105Z,98.63
2018-02-18T20:31:58.809Z,124.87
2018-02-18T20:34:28.489Z,90.27
2018-02-18T20:36:57.052Z,94.10
2018-02-18T20:39:25.676Z,88.80
2018-02-18T20:41:54.284Z,82.17
2018-02-18T20:44:23.634Z,85.97
2018-02-18T20:46:52.627Z,154.30
2018-02-18T20:49:21.188Z,122.87
2018-02-18T20:51:49.748Z,111.93
2018-02-18T20:54:18.356Z,118.50
2018-02-18T20:56:46.917Z,112.50
2018-02-18T20:59:15.476Z,113.57
2018-02-18T21:01:44.950Z,97.90
2018-02-18T21:04:13.505Z,112.63
2018-02-18T21:06:42.065Z,107.87
2018-02-18T21:09:11.445Z,81.63
2018-02-18T21:11:40.002Z,92.10
2018-02-18T21:14:08.568Z,82.40
2018-02-18T21:16:37.177Z,73.57
2018-02-18T21:19:05.726Z,69.07
2018-02-18T21:21:34.297Z,77.40
2018-02-18T21:24:03.118Z,74.23
2018-02-18T21:26:31.685Z,71.47
2018-02-18T21:29:00.245Z,92.80
2018-02-18T21:31:28.846Z,87.63
2018-02-18T21:33:57.408Z,74.00
2018-02-18T21:36:25.968Z,76.60
2018-02-18T21:38:54.574Z,79.90
2018-02-18T21:41:23.128Z,81.60
2018-02-18T21:43:51.681Z,78.87
2018-02-18T21:46:20.285Z,78.33
2018-02-18T21:48:48.858Z,81.73
2018-02-18T21:51:17.427Z,85.77
2018-02-18T21:53:46.025Z,72.00
2018-02-18T21:56:14.580Z,76.10
2018-02-18T21:58:43.145Z,84.40
2018-02-18T22:01:11.759Z,79.57
2018-02-18T22:03:40.312Z,79.97
2018-02-18T22:06:08.860Z,78.27
2018-02-18T22:08:38.522Z,82.07
2018-02-18T22:11:07.084Z,80.77
2018-02-18T22:13:35.636Z,74.17
2018-02-18T22:16:04.241Z,72.47
2018-02-18T22:18:33.557Z,72.77
2018-02-18T22:21:02.125Z,64.57
2018-02-18T22:23:31.489Z,70.00
2018-02-18T22:26:00.040Z,72.53
2018-02-18T22:28:28.592Z,76.20
2018-02-18T22:30:59.067Z,77.83
2018-02-18T22:33:27.620Z,81.13
2018-02-18T22:35:56.172Z,88.87
2018-02-18T22:38:25.549Z,93.90
2018-02-18T22:40:54.112Z,96.37
2018-02-18T22:43:22.665Z,92.40
2018-02-18T22:45:51.286Z,95.47
2018-02-18T22:48:19.837Z,94.57
2018-02-18T22:50:48.399Z,99.50
2018-02-18T22:53:18.151Z,92.87
2018-02-18T22:55:46.712Z,100.63
2018-02-18T22:58:15.264Z,95.93
2018-02-18T23:00:45.464Z,99.03
2018-02-18T23:03:14.020Z,98.47
2018-02-18T23:05:48.173Z,98.40
2018-02-18T23:08:16.733Z,99.03
2018-02-18T23:10:45.286Z,99.47
2018-02-18T23:13:13.891Z,99.90
2018-02-18T23:15:42.444Z,91.60
2018-02-18T23:18:11.060Z,97.80
2018-02-18T23:20:57.332Z,97.37
2018-02-18T23:23:25.893Z,87.03
2018-02-18T23:25:55.248Z,85.47
2018-02-18T23:28:24.021Z,76.13
2018-02-18T23:30:52.582Z,84.23
2018-02-18T23:33:21.132Z,96.43
2018-02-18T23:35:50.606Z,83.90
2018-02-18T23:38:19.157Z,88.97
2018-02-18T23:40:47.709Z,89.87
2018-02-18T23:43:17.172Z,83.67
2018-02-18T23:45:45.724Z,81.33
2018-02-18T23:48:14.276Z,73.67
2018-02-18T23:50:42.885Z,66.73
2018-02-18T23:53:11.433Z,62.00
2018-02-18T23:55:39.988Z,62.57
2018-02-18T23:58:08.604Z,69.37
